Time;durP1;ratioP1;P1;durP2;ratioP2;P2;SDS_P1;SDS_P2;PMS_P1;PMS_P2;Temp;Humidity;BMP_temperature;BMP_pressure;BME280_temperature;BME280_humidity;BME280_pressure;Samples;Min_cycle;Max_cycle;Signal;HPM_P1;HPM_P2
2022/04/11 00:04:42;;;;;;;6.03;2.40;;;;;;;;;;10413611;28;20032;-48
2022/04/11 00:09:45;;;;;;;4.65;2.08;;;;;;;;;;10418813;28;20851;-47
2022/04/11 00:14:45;;;;;;;5.15;2.53;;;;;;;;;;10454799;28;20033;-48
2022/04/11 00:19:46;;;;;;;6.17;2.13;;;;;;;;;;10448239;28;20033;-48
2022/04/11 00:24:46;;;;;;;5.33;2.10;;;;;;;;;;10412660;28;20036;-48
2022/04/11 00:29:46;;;;;;;5.77;2.07;;;;;;;;;;10417853;28;20052;-48
2022/04/11 00:34:47;;;;;;;5.60;2.17;;;;;;;;;;10454017;28;20044;-48
2022/04/11 00:39:47;;;;;;;4.57;1.87;;;;;;;;;;10451439;28;20029;-48
2022/04/11 00:44:47;;;;;;;8.47;2.13;;;;;;;;;;10412114;28;20400;-48
2022/04/11 00:49:48;;;;;;;4.03;2.07;;;;;;;;;;10411767;28;20458;-48
2022/04/11 00:54:48;;;;;;;4.38;2.00;;;;;;;;;;10453106;28;20033;-49
2022/04/11 00:59:50;;;;;;;5.97;1.88;;;;;;;;;;10452785;28;20032;-48
2022/04/11 01:04:51;;;;;;;2.70;1.65;;;;;;;;;;10450581;28;20116;-48
2022/04/11 01:09:51;;;;;;;6.00;2.40;;;;;;;;;;10452210;28;20025;-48
2022/04/11 01:14:51;;;;;;;5.13;1.90;;;;;;;;;;10450465;28;20029;-48
2022/04/11 01:19:52;;;;;;;2.47;1.67;;;;;;;;;;10451784;28;20021;-49
2022/04/11 01:24:52;;;;;;;5.17;2.03;;;;;;;;;;10450035;28;20056;-48
2022/04/11 01:29:53;;;;;;;5.63;2.00;;;;;;;;;;10451203;28;20482;-48
2022/04/11 01:34:53;;;;;;;4.37;1.90;;;;;;;;;;10448767;28;20037;-47
2022/04/11 01:39:54;;;;;;;3.43;1.67;;;;;;;;;;10443393;28;20047;-48
2022/04/11 01:44:54;;;;;;;4.20;1.80;;;;;;;;;;10449544;28;20553;-48
2022/04/11 01:49:54;;;;;;;2.30;1.53;;;;;;;;;;10450652;28;20029;-47
2022/04/11 01:54:55;;;;;;;5.10;1.80;;;;;;;;;;10435292;28;20040;-47
2022/04/11 01:59:55;;;;;;;5.05;2.30;;;;;;;;;;10450493;28;20152;-47
2022/04/11 02:04:56;;;;;;;3.30;1.60;;;;;;;;;;10449368;28;20107;-48
2022/04/11 02:09:56;;;;;;;1.97;1.50;;;;;;;;;;10437691;28;20037;-49
2022/04/11 02:14:56;;;;;;;2.60;1.60;;;;;;;;;;10420614;28;20025;-48
2022/04/11 02:19:57;;;;;;;6.22;1.60;;;;;;;;;;10410630;28;20029;-47
2022/04/11 02:24:57;;;;;;;2.35;1.55;;;;;;;;;;10412559;28;20256;-47
2022/04/11 02:29:58;;;;;;;2.67;1.87;;;;;;;;;;10408190;28;20497;-47
2022/04/11 02:34:58;;;;;;;2.83;1.80;;;;;;;;;;10409173;28;20116;-48
2022/04/11 02:39:59;;;;;;;2.87;1.60;;;;;;;;;;10408279;28;20381;-48
2022/04/11 02:44:59;;;;;;;2.92;1.70;;;;;;;;;;10434541;28;20032;-48
2022/04/11 02:50:00;;;;;;;3.37;1.60;;;;;;;;;;10457658;28;20029;-48
2022/04/11 02:55:01;;;;;;;2.93;1.43;;;;;;;;;;10456579;28;20078;-48
2022/04/11 03:00:01;;;;;;;5.18;2.22;;;;;;;;;;10444511;28;20196;-48
2022/04/11 03:05:02;;;;;;;2.65;1.60;;;;;;;;;;10456575;28;20461;-48
2022/04/11 03:10:02;;;;;;;4.15;1.70;;;;;;;;;;10456883;28;20032;-49
2022/04/11 03:15:03;;;;;;;2.92;1.48;;;;;;;;;;10431623;28;20041;-48
2022/04/11 03:20:04;;;;;;;2.85;1.65;;;;;;;;;;10415198;28;20473;-47
2022/04/11 03:25:05;;;;;;;3.25;1.70;;;;;;;;;;10416150;28;20064;-50
2022/04/11 03:30:07;;;;;;;3.17;1.40;;;;;;;;;;10414704;28;20054;-48
2022/04/11 03:35:09;;;;;;;2.83;1.77;;;;;;;;;;10415700;28;20260;-48
2022/04/11 03:40:10;;;;;;;4.05;1.30;;;;;;;;;;10415281;28;20087;-47
2022/04/11 03:45:11;;;;;;;5.03;1.60;;;;;;;;;;10420721;28;20474;-48
2022/04/11 03:50:12;;;;;;;3.25;1.38;;;;;;;;;;10417588;28;20069;-47
2022/04/11 03:55:12;;;;;;;3.10;1.63;;;;;;;;;;10415492;28;20057;-48
2022/04/11 04:00:13;;;;;;;2.53;1.40;;;;;;;;;;10413044;28;20518;-47
2022/04/11 04:05:14;;;;;;;1.98;1.50;;;;;;;;;;10414159;28;20036;-48
2022/04/11 04:10:14;;;;;;;4.50;1.20;;;;;;;;;;10413527;28;20052;-47
2022/04/11 04:15:14;;;;;;;3.00;1.43;;;;;;;;;;10413272;28;20789;-48
2022/04/11 04:20:15;;;;;;;1.98;1.30;;;;;;;;;;10452410;28;20032;-48
2022/04/11 04:25:16;;;;;;;2.63;1.30;;;;;;;;;;10453929;28;20043;-48
2022/04/11 04:30:16;;;;;;;2.27;1.43;;;;;;;;;;10452000;28;20509;-48
2022/04/11 04:35:17;;;;;;;2.67;1.15;;;;;;;;;;10453433;28;20446;-47
2022/04/11 04:40:18;;;;;;;3.38;1.77;;;;;;;;;;10451728;28;20024;-48
2022/04/11 04:45:19;;;;;;;1.45;1.25;;;;;;;;;;10453053;28;20075;-49
2022/04/11 04:50:20;;;;;;;1.30;1.20;;;;;;;;;;10427773;28;20374;-48
2022/04/11 04:55:20;;;;;;;1.40;1.20;;;;;;;;;;10411264;28;20026;-48
2022/04/11 05:00:21;;;;;;;3.78;1.65;;;;;;;;;;10412402;28;20984;-48
2022/04/11 05:05:21;;;;;;;4.10;1.48;;;;;;;;;;10410938;28;20108;-48
2022/04/11 05:10:22;;;;;;;12.73;1.73;;;;;;;;;;10421362;28;20491;-47
2022/04/11 05:15:23;;;;;;;6.67;1.30;;;;;;;;;;10432169;28;20473;-50
2022/04/11 05:20:23;;;;;;;4.88;1.50;;;;;;;;;;10451720;28;20418;-53
2022/04/11 05:25:24;;;;;;;15.20;2.03;;;;;;;;;;10413804;28;20025;-54
2022/04/11 05:35:36;;;;;;;10.82;1.40;;;;;;;;;;10475899;28;20622;-42
2022/04/11 05:40:37;;;;;;;12.55;2.38;;;;;;;;;;10448526;28;20113;-42
2022/04/11 05:45:38;;;;;;;10.68;1.55;;;;;;;;;;10474779;28;20032;-41
2022/04/11 05:50:38;;;;;;;6.13;1.50;;;;;;;;;;10470072;28;20028;-43
2022/04/11 05:55:39;;;;;;;9.60;1.40;;;;;;;;;;10473572;28;20035;-42
2022/04/11 06:00:39;;;;;;;4.82;1.48;;;;;;;;;;10473935;28;20024;-47
2022/04/11 06:05:40;;;;;;;5.18;1.60;;;;;;;;;;10468970;28;20036;-51
2022/04/11 06:10:43;;;;;;;5.10;1.63;;;;;;;;;;10464608;28;20052;-42
2022/04/11 06:15:44;;;;;;;7.75;1.75;;;;;;;;;;10447783;28;20113;-44
2022/04/11 06:20:46;;;;;;;25.27;2.25;;;;;;;;;;10461576;28;20037;-53
2022/04/11 06:25:46;;;;;;;16.55;2.28;;;;;;;;;;10456547;28;20400;-41
2022/04/11 06:30:47;;;;;;;8.05;2.30;;;;;;;;;;10510325;28;20033;-51
2022/04/11 06:35:47;;;;;;;21.13;2.20;;;;;;;;;;10482728;28;20025;-46
2022/04/11 06:40:49;;;;;;;14.02;3.28;;;;;;;;;;10482524;28;20276;-42
2022/04/11 06:45:50;;;;;;;10.05;2.50;;;;;;;;;;10470939;28;20037;-47
2022/04/11 06:50:52;;;;;;;14.00;2.33;;;;;;;;;;10496575;28;20024;-42
2022/04/11 06:55:53;;;;;;;15.30;2.30;;;;;;;;;;10496324;28;20032;-46
2022/04/11 07:00:54;;;;;;;9.73;2.70;;;;;;;;;;10496210;28;20036;-50
2022/04/11 07:05:54;;;;;;;6.68;2.08;;;;;;;;;;10495686;28;20025;-40
2022/04/11 07:10:59;;;;;;;11.25;2.55;;;;;;;;;;10496110;28;20039;-52
2022/04/11 07:16:01;;;;;;;7.18;1.88;;;;;;;;;;10495611;28;20032;-43
2022/04/11 07:21:02;;;;;;;12.65;2.10;;;;;;;;;;10495305;28;20033;-52
2022/04/11 07:26:02;;;;;;;6.70;2.17;;;;;;;;;;10495164;28;20029;-56
2022/04/11 07:31:03;;;;;;;3.35;1.65;;;;;;;;;;10495083;28;20051;-54
2022/04/11 07:36:04;;;;;;;8.55;1.90;;;;;;;;;;10494775;28;20115;-54
2022/04/11 07:41:04;;;;;;;7.30;2.20;;;;;;;;;;10494573;28;20516;-53
2022/04/11 07:46:05;;;;;;;10.90;2.00;;;;;;;;;;10494402;28;20024;-54
2022/04/11 07:51:06;;;;;;;7.88;2.17;;;;;;;;;;10493783;28;20086;-52
2022/04/11 07:56:06;;;;;;;4.40;2.25;;;;;;;;;;10482534;28;20025;-55
2022/04/11 08:01:07;;;;;;;5.10;1.98;;;;;;;;;;10422181;28;20021;-54
2022/04/11 08:06:07;;;;;;;5.65;2.10;;;;;;;;;;10452060;28;20033;-51
2022/04/11 08:11:08;;;;;;;12.18;1.98;;;;;;;;;;10452008;28;20029;-55
2022/04/11 08:16:09;;;;;;;4.22;1.65;;;;;;;;;;10451803;28;20083;-42
2022/04/11 08:21:10;;;;;;;11.27;1.90;;;;;;;;;;10450452;28;20031;-43
2022/04/11 08:26:11;;;;;;;5.43;1.73;;;;;;;;;;10446978;28;20060;-53
2022/04/11 08:31:11;;;;;;;4.13;1.67;;;;;;;;;;10450645;28;20037;-51
2022/04/11 08:36:12;;;;;;;4.18;1.92;;;;;;;;;;10450857;28;20036;-41
2022/04/11 08:41:17;;;;;;;3.60;1.60;;;;;;;;;;10450810;28;20025;-43
2022/04/11 08:46:19;;;;;;;4.72;1.60;;;;;;;;;;10450961;28;20029;-41
2022/04/11 08:51:19;;;;;;;4.10;1.73;;;;;;;;;;10450914;28;20025;-55
2022/04/11 08:56:20;;;;;;;3.90;1.40;;;;;;;;;;10450426;28;20473;-41
2022/04/11 09:01:21;;;;;;;3.65;1.92;;;;;;;;;;10448926;28;20025;-43
2022/04/11 09:06:23;;;;;;;5.82;2.10;;;;;;;;;;10449533;28;20028;-53
2022/04/11 09:11:31;;;;;;;1.73;1.38;;;;;;;;;;10449963;28;20033;-42
2022/04/11 09:16:52;;;;;;;6.50;1.77;;;;;;;;;;10449790;28;20025;-42
2022/04/11 09:21:54;;;;;;;2.90;1.52;;;;;;;;;;10449551;28;20546;-43
2022/04/11 09:26:55;;;;;;;6.10;1.30;;;;;;;;;;10450007;28;20040;-43
2022/04/11 09:32:03;;;;;;;5.40;1.35;;;;;;;;;;10449154;28;20489;-42
2022/04/11 09:37:08;;;;;;;2.63;1.83;;;;;;;;;;10449690;28;20028;-41
2022/04/11 09:42:09;;;;;;;6.57;1.80;;;;;;;;;;10449137;28;20476;-42
2022/04/11 09:47:09;;;;;;;3.22;1.45;;;;;;;;;;10447995;28;20083;-49
2022/04/11 09:52:13;;;;;;;2.35;1.50;;;;;;;;;;10448877;28;20037;-46
2022/04/11 09:57:17;;;;;;;1.83;1.40;;;;;;;;;;10449006;28;20484;-53
2022/04/11 10:02:21;;;;;;;6.82;1.65;;;;;;;;;;10448880;28;20061;-42
2022/04/11 10:07:22;;;;;;;2.78;1.50;;;;;;;;;;10448900;28;20376;-42
2022/04/11 10:12:23;;;;;;;3.03;1.38;;;;;;;;;;10447285;28;20104;-41
2022/04/11 10:17:23;;;;;;;2.75;1.40;;;;;;;;;;10430758;28;20362;-41
2022/04/11 10:22:27;;;;;;;3.80;1.58;;;;;;;;;;10456379;28;20029;-41
2022/04/11 10:27:29;;;;;;;2.42;1.30;;;;;;;;;;10456101;28;20104;-44
2022/04/11 10:32:30;;;;;;;3.15;1.45;;;;;;;;;;10455785;28;20056;-41
2022/04/11 10:37:40;;;;;;;2.40;1.70;;;;;;;;;;10455712;28;20255;-41
2022/04/11 10:43:04;;;;;;;7.20;1.30;;;;;;;;;;10455816;28;20064;-41
2022/04/11 10:48:07;;;;;;;2.10;1.50;;;;;;;;;;10455068;28;20124;-41
2022/04/11 10:53:09;;;;;;;5.63;1.40;;;;;;;;;;10455038;28;20082;-41
2022/04/11 10:58:22;;;;;;;3.22;1.38;;;;;;;;;;10455046;28;20033;-41
2022/04/11 11:03:23;;;;;;;2.60;1.35;;;;;;;;;;10454876;28;20028;-41
2022/04/11 11:08:25;;;;;;;3.67;1.40;;;;;;;;;;10454395;28;20036;-45
2022/04/11 11:13:35;;;;;;;2.60;1.75;;;;;;;;;;10454275;28;20028;-42
2022/04/11 11:18:51;;;;;;;1.92;1.58;;;;;;;;;;10454123;28;20511;-41
2022/04/11 11:24:08;;;;;;;2.60;1.65;;;;;;;;;;10453906;28;20036;-41
2022/04/11 11:29:16;;;;;;;1.58;1.20;;;;;;;;;;10452353;28;20032;-41
2022/04/11 11:34:21;;;;;;;2.85;1.50;;;;;;;;;;10432069;28;20052;-50
2022/04/11 11:39:23;;;;;;;1.33;1.20;;;;;;;;;;10452779;28;20103;-48
2022/04/11 11:44:23;;;;;;;2.00;1.25;;;;;;;;;;10450859;28;20057;-42
2022/04/11 11:49:26;;;;;;;2.80;1.40;;;;;;;;;;10439432;28;20036;-42
2022/04/11 11:54:36;;;;;;;2.05;1.20;;;;;;;;;;10411627;28;20033;-41
2022/04/11 11:59:56;;;;;;;1.27;1.15;;;;;;;;;;10420558;28;20029;-42
2022/04/11 12:04:57;;;;;;;3.65;1.48;;;;;;;;;;10451921;28;20037;-42
2022/04/11 12:09:57;;;;;;;2.97;1.25;;;;;;;;;;10416943;28;20033;-52
2022/04/11 12:15:09;;;;;;;2.55;1.10;;;;;;;;;;10410344;28;20370;-41
2022/04/11 12:20:14;;;;;;;2.05;1.60;;;;;;;;;;10409862;28;20040;-41
2022/04/11 12:25:27;;;;;;;4.78;1.20;;;;;;;;;;10409264;28;20037;-54
2022/04/11 12:30:27;;;;;;;1.20;1.00;;;;;;;;;;10409741;28;20026;-42
2022/04/11 12:35:28;;;;;;;1.73;1.55;;;;;;;;;;10407657;28;20059;-53
2022/04/11 12:40:44;;;;;;;1.50;1.10;;;;;;;;;;10408053;28;20440;-53
2022/04/11 12:46:03;;;;;;;5.47;1.17;;;;;;;;;;10412557;28;20072;-53
2022/04/11 12:51:11;;;;;;;2.95;1.40;;;;;;;;;;10432497;28;20030;-53
2022/04/11 12:56:12;;;;;;;2.92;1.38;;;;;;;;;;10409111;28;20033;-47
2022/04/11 13:01:12;;;;;;;7.65;1.45;;;;;;;;;;10416706;28;20051;-51
2022/04/11 13:06:13;;;;;;;4.80;1.70;;;;;;;;;;10449442;28;20025;-48
2022/04/11 13:11:14;;;;;;;1.90;1.25;;;;;;;;;;10444376;28;20029;-46
2022/04/11 13:21:33;;;;;;;2.10;1.30;;;;;;;;;;10411310;28;20108;-45
2022/04/11 13:26:34;;;;;;;9.05;1.40;;;;;;;;;;10409384;28;20029;-48
2022/04/11 13:31:35;;;;;;;2.63;1.40;;;;;;;;;;10406712;28;20037;-51
2022/04/11 13:36:36;;;;;;;6.18;1.50;;;;;;;;;;10405878;28;20381;-48
2022/04/11 13:41:36;;;;;;;6.40;1.70;;;;;;;;;;10408897;28;20034;-42
2022/04/11 13:46:37;;;;;;;6.70;1.42;;;;;;;;;;10444190;28;20056;-47
2022/04/11 13:51:38;;;;;;;4.65;1.40;;;;;;;;;;10409855;28;20022;-45
2022/04/11 13:56:42;;;;;;;3.80;1.75;;;;;;;;;;10415074;28;20033;-42
2022/04/11 14:01:45;;;;;;;3.42;1.50;;;;;;;;;;10417095;28;20022;-42
2022/04/11 14:06:46;;;;;;;10.60;1.80;;;;;;;;;;10415678;28;20030;-44
2022/04/11 14:11:47;;;;;;;13.57;2.03;;;;;;;;;;10416137;28;20035;-42
2022/04/11 14:16:47;;;;;;;5.95;1.75;;;;;;;;;;10414730;28;20465;-53
2022/04/11 14:21:48;;;;;;;3.67;1.45;;;;;;;;;;10416320;28;20033;-46
2022/04/11 14:26:48;;;;;;;3.60;1.33;;;;;;;;;;10415349;28;20029;-48
2022/04/11 14:31:49;;;;;;;4.13;1.48;;;;;;;;;;10414129;28;20042;-46
2022/04/11 14:36:50;;;;;;;7.20;1.73;;;;;;;;;;10413678;28;20041;-55
2022/04/11 14:41:50;;;;;;;9.57;1.75;;;;;;;;;;10413115;28;20030;-43
2022/04/11 14:46:51;;;;;;;5.60;1.80;;;;;;;;;;10418225;28;20561;-48
2022/04/11 14:51:51;;;;;;;5.57;1.67;;;;;;;;;;10413871;28;20361;-55
2022/04/11 14:56:52;;;;;;;3.08;1.60;;;;;;;;;;10414946;28;20144;-41
2022/04/11 15:01:53;;;;;;;3.97;1.73;;;;;;;;;;10413791;28;20029;-42
2022/04/11 15:06:53;;;;;;;4.07;1.70;;;;;;;;;;10413768;28;20408;-41
2022/04/11 15:11:54;;;;;;;7.55;1.70;;;;;;;;;;10440928;28;20487;-52
2022/04/11 15:16:55;;;;;;;3.03;1.50;;;;;;;;;;10447822;28;20033;-43
2022/04/11 15:21:56;;;;;;;3.05;1.40;;;;;;;;;;10413125;28;20033;-48
2022/04/11 15:26:56;;;;;;;3.20;1.30;;;;;;;;;;10410772;28;20252;-48
2022/04/11 15:32:00;;;;;;;4.75;1.52;;;;;;;;;;10410845;28;20058;-42
2022/04/11 15:37:00;;;;;;;3.30;1.40;;;;;;;;;;10433411;28;20342;-42
2022/04/11 15:42:02;;;;;;;4.07;1.40;;;;;;;;;;10411838;28;20255;-51
2022/04/11 15:47:04;;;;;;;6.90;1.30;;;;;;;;;;10445270;28;20187;-55
2022/04/11 15:52:05;;;;;;;2.95;1.40;;;;;;;;;;10452896;28;20151;-55
2022/04/11 15:57:06;;;;;;;4.63;1.98;;;;;;;;;;10451232;28;20160;-54
2022/04/11 16:02:06;;;;;;;7.07;1.30;;;;;;;;;;10453372;28;20167;-51
2022/04/11 16:07:07;;;;;;;2.08;1.15;;;;;;;;;;10441848;28;20029;-56
2022/04/11 16:12:10;;;;;;;1.52;1.35;;;;;;;;;;10410952;28;20044;-54
2022/04/11 16:17:11;;;;;;;2.72;1.40;;;;;;;;;;10437932;28;20036;-54
2022/04/11 16:22:12;;;;;;;4.15;1.30;;;;;;;;;;10393264;28;20052;-55
2022/04/11 16:27:12;;;;;;;4.68;1.35;;;;;;;;;;10438196;28;20036;-44
2022/04/11 16:32:13;;;;;;;4.10;1.25;;;;;;;;;;10451228;28;20045;-49
2022/04/11 16:37:13;;;;;;;3.30;1.30;;;;;;;;;;10457760;28;20033;-52
2022/04/11 16:42:14;;;;;;;4.65;1.85;;;;;;;;;;10442479;28;20040;-49
2022/04/11 16:47:14;;;;;;;4.63;1.05;;;;;;;;;;10446212;28;20052;-52
2022/04/11 16:52:15;;;;;;;4.90;1.58;;;;;;;;;;10446513;28;20028;-52
2022/04/11 16:57:16;;;;;;;4.07;1.60;;;;;;;;;;10458177;28;20039;-54
2022/04/11 17:02:17;;;;;;;9.10;1.75;;;;;;;;;;10465431;28;20408;-55
2022/04/11 17:07:18;;;;;;;4.60;1.80;;;;;;;;;;10431879;28;20033;-57
2022/04/11 17:12:18;;;;;;;5.57;1.42;;;;;;;;;;10456631;28;20817;-54
2022/04/11 17:22:38;;;;;;;5.47;1.38;;;;;;;;;;10408858;28;20025;-56
2022/04/11 17:27:38;;;;;;;7.47;1.63;;;;;;;;;;10409598;28;20025;-56
2022/04/11 17:32:39;;;;;;;4.18;1.50;;;;;;;;;;10409893;28;20041;-43
2022/04/11 17:37:40;;;;;;;10.13;1.60;;;;;;;;;;10412008;28;20029;-52
2022/04/11 17:42:40;;;;;;;14.23;2.55;;;;;;;;;;10409161;28;20067;-57
2022/04/11 17:47:41;;;;;;;28.58;3.10;;;;;;;;;;10441200;28;20041;-48
2022/04/11 17:52:42;;;;;;;15.10;2.30;;;;;;;;;;10423978;28;20603;-51
2022/04/11 17:57:42;;;;;;;7.43;1.95;;;;;;;;;;10418802;28;20263;-49
2022/04/11 18:02:45;;;;;;;7.07;2.13;;;;;;;;;;10423546;28;20047;-51
2022/04/11 18:07:46;;;;;;;6.22;2.22;;;;;;;;;;10417116;28;20481;-58
2022/04/11 18:12:47;;;;;;;6.93;1.83;;;;;;;;;;10419547;28;20029;-57
2022/04/11 18:17:51;;;;;;;11.27;1.90;;;;;;;;;;10445411;28;20029;-57
2022/04/11 18:22:52;;;;;;;11.20;2.00;;;;;;;;;;10445742;28;20028;-58
2022/04/11 18:27:53;;;;;;;9.32;2.42;;;;;;;;;;10407841;28;20076;-57
2022/04/11 18:32:54;;;;;;;10.13;1.90;;;;;;;;;;10408543;28;20045;-58
2022/04/11 18:37:58;;;;;;;8.55;2.35;;;;;;;;;;10434234;28;20037;-55
2022/04/11 18:42:58;;;;;;;7.63;2.42;;;;;;;;;;10414090;28;20155;-58
2022/04/11 18:47:59;;;;;;;11.38;2.30;;;;;;;;;;10445563;28;20482;-59
2022/04/11 18:53:00;;;;;;;9.35;2.00;;;;;;;;;;10450967;28;20025;-58
2022/04/11 18:58:00;;;;;;;7.22;1.80;;;;;;;;;;10431648;28;20037;-59
2022/04/11 19:03:01;;;;;;;10.98;2.00;;;;;;;;;;10426580;28;20033;-54
2022/04/11 19:08:02;;;;;;;9.40;2.00;;;;;;;;;;10413474;28;20017;-57
2022/04/11 19:13:02;;;;;;;5.72;2.13;;;;;;;;;;10414357;28;20045;-55
2022/04/11 19:18:03;;;;;;;4.63;1.85;;;;;;;;;;10433538;28;20283;-56
2022/04/11 19:23:04;;;;;;;5.90;1.90;;;;;;;;;;10428461;28;20542;-57
2022/04/11 19:28:05;;;;;;;9.18;2.20;;;;;;;;;;10413118;28;20095;-55
2022/04/11 19:33:06;;;;;;;4.60;1.90;;;;;;;;;;10437592;28;20075;-55
2022/04/11 19:38:07;;;;;;;2.42;1.83;;;;;;;;;;10420237;28;20037;-57
2022/04/11 19:43:09;;;;;;;7.15;1.92;;;;;;;;;;10413295;28;20034;-58
2022/04/11 19:53:28;;;;;;;4.85;1.83;;;;;;;;;;10433292;28;20045;-59
2022/04/11 19:58:29;;;;;;;7.80;2.15;;;;;;;;;;10434404;28;20029;-58
2022/04/11 20:03:30;;;;;;;8.05;2.35;;;;;;;;;;10452533;28;20025;-58
2022/04/11 20:08:31;;;;;;;6.65;1.90;;;;;;;;;;10431722;28;20037;-58
2022/04/11 20:13:34;;;;;;;5.00;1.52;;;;;;;;;;10411264;28;20030;-50
2022/04/11 20:18:34;;;;;;;7.07;1.85;;;;;;;;;;10411862;28;20033;-51
2022/04/11 20:23:36;;;;;;;4.97;1.55;;;;;;;;;;10412017;28;20029;-53
2022/04/11 20:28:38;;;;;;;5.20;1.70;;;;;;;;;;10420013;28;20021;-57
2022/04/11 20:33:38;;;;;;;3.65;1.90;;;;;;;;;;10443674;28;20048;-57
2022/04/11 20:38:39;;;;;;;3.25;1.80;;;;;;;;;;10448987;28;20102;-51
2022/04/11 20:43:40;;;;;;;4.35;2.40;;;;;;;;;;10407936;28;20055;-55
2022/04/11 20:48:42;;;;;;;2.85;1.48;;;;;;;;;;10407650;28;20025;-53
2022/04/11 20:53:43;;;;;;;7.70;1.63;;;;;;;;;;10405491;28;20048;-58
2022/04/11 20:58:43;;;;;;;20.90;2.85;;;;;;;;;;10411546;28;20033;-57
2022/04/11 21:03:44;;;;;;;11.23;2.83;;;;;;;;;;10411421;28;20026;-55
2022/04/11 21:08:44;;;;;;;14.68;2.65;;;;;;;;;;10406333;28;20033;-53
2022/04/11 21:13:45;;;;;;;8.57;2.53;;;;;;;;;;10413434;28;20033;-53
2022/04/11 21:18:46;;;;;;;11.52;3.05;;;;;;;;;;10408942;28;20091;-56
2022/04/11 21:23:46;;;;;;;12.25;3.13;;;;;;;;;;10408918;28;20029;-56
2022/04/11 21:28:47;;;;;;;10.25;2.95;;;;;;;;;;10418995;28;20029;-49
2022/04/11 21:33:47;;;;;;;10.25;2.40;;;;;;;;;;10408277;28;20041;-48
2022/04/11 21:38:48;;;;;;;14.18;3.97;;;;;;;;;;10413300;28;20026;-50
2022/04/11 21:43:49;;;;;;;23.00;3.83;;;;;;;;;;10415652;28;20482;-49
2022/04/11 21:48:50;;;;;;;14.20;3.17;;;;;;;;;;10443534;28;20035;-52
2022/04/11 21:53:51;;;;;;;10.55;3.35;;;;;;;;;;10445333;28;20141;-48
2022/04/11 21:58:52;;;;;;;18.13;3.85;;;;;;;;;;10409062;28;20107;-51
2022/04/11 22:03:52;;;;;;;10.52;2.70;;;;;;;;;;10410627;28;20044;-48
2022/04/11 22:08:55;;;;;;;16.33;3.78;;;;;;;;;;10412600;28;20033;-52
2022/04/11 22:13:55;;;;;;;10.95;3.22;;;;;;;;;;10412078;28;20039;-50
2022/04/11 22:18:56;;;;;;;9.15;2.78;;;;;;;;;;10428918;28;20029;-42
2022/04/11 22:23:57;;;;;;;10.23;3.58;;;;;;;;;;10416753;28;20033;-50
2022/04/11 22:28:57;;;;;;;10.82;2.75;;;;;;;;;;10439831;28;20029;-49
2022/04/11 22:33:59;;;;;;;17.45;3.10;;;;;;;;;;10416690;28;20048;-49
2022/04/11 22:39:00;;;;;;;15.43;3.03;;;;;;;;;;10415359;28;20238;-48
2022/04/11 22:44:01;;;;;;;4.20;2.42;;;;;;;;;;10428663;28;20542;-50
2022/04/11 22:49:02;;;;;;;8.52;3.28;;;;;;;;;;10437633;28;20103;-45
2022/04/11 22:54:03;;;;;;;9.32;2.65;;;;;;;;;;10446206;28;20634;-46
2022/04/11 22:59:04;;;;;;;16.98;3.25;;;;;;;;;;10455128;28;20491;-45
2022/04/11 23:04:05;;;;;;;12.05;3.10;;;;;;;;;;10447805;28;20037;-48
2022/04/11 23:09:05;;;;;;;13.73;3.03;;;;;;;;;;10454853;28;20399;-45
2022/04/11 23:14:06;;;;;;;11.40;2.95;;;;;;;;;;10452917;28;20029;-45
2022/04/11 23:19:07;;;;;;;9.82;2.80;;;;;;;;;;10452683;28;20036;-49
2022/04/11 23:24:09;;;;;;;7.25;2.83;;;;;;;;;;10453393;28;20021;-47
2022/04/11 23:29:09;;;;;;;9.55;2.95;;;;;;;;;;10454002;28;20025;-46
2022/04/11 23:34:10;;;;;;;10.48;2.70;;;;;;;;;;10452213;28;20048;-47
2022/04/11 23:39:10;;;;;;;7.03;2.60;;;;;;;;;;10414420;28;20488;-46
2022/04/11 23:44:11;;;;;;;7.68;2.50;;;;;;;;;;10431797;28;20476;-46
2022/04/11 23:49:12;;;;;;;8.90;2.40;;;;;;;;;;10453239;28;20079;-46
2022/04/11 23:54:12;;;;;;;7.80;2.95;;;;;;;;;;10452237;28;20473;-47
2022/04/11 23:59:13;;;;;;;9.75;2.65;;;;;;;;;;10451455;28;20388;-45
